sensor_id;sensor_type;location;lat;lon;timestamp;P1;durP1;ratioP1;P2;durP2;ratioP2
72813;SDS011;60945;48.516;-2.768;2023-06-01T00:02:23;27.52;;;12.02;;
72813;SDS011;60945;48.516;-2.768;2023-06-01T00:04:48;23.70;;;11.65;;
72813;SDS011;60945;48.516;-2.768;2023-06-01T00:07:15;24.52;;;10.88;;
72813;SDS011;60945;48.516;-2.768;2023-06-01T00:09:41;23.70;;;11.45;;
72813;SDS011;60945;48.516;-2.768;2023-06-01T00:12:07;24.23;;;11.13;;
72813;SDS011;60945;48.516;-2.768;2023-06-01T00:14:33;23.80;;;11.68;;
72813;SDS011;60945;48.516;-2.768;2023-06-01T00:16:59;28.23;;;12.75;;
72813;SDS011;60945;48.516;-2.768;2023-06-01T00:19:25;34.67;;;12.82;;
72813;SDS011;60945;48.516;-2.768;2023-06-01T00:21:52;27.77;;;12.32;;
72813;SDS011;60945;48.516;-2.768;2023-06-01T00:24:22;27.63;;;12.48;;
72813;SDS011;60945;48.516;-2.768;2023-06-01T00:26:48;28.50;;;12.57;;
72813;SDS011;60945;48.516;-2.768;2023-06-01T00:29:14;26.10;;;12.30;;
72813;SDS011;60945;48.516;-2.768;2023-06-01T00:31:40;27.35;;;12.95;;
72813;SDS011;60945;48.516;-2.768;2023-06-01T00:34:09;24.70;;;12.88;;
72813;SDS011;60945;48.516;-2.768;2023-06-01T00:36:34;28.35;;;14.52;;
72813;SDS011;60945;48.516;-2.768;2023-06-01T00:39:00;29.92;;;13.57;;
72813;SDS011;60945;48.516;-2.768;2023-06-01T00:41:32;27.45;;;13.77;;
72813;SDS011;60945;48.516;-2.768;2023-06-01T00:43:58;31.50;;;13.23;;
72813;SDS011;60945;48.516;-2.768;2023-06-01T00:46:27;31.58;;;14.68;;
72813;SDS011;60945;48.516;-2.768;2023-06-01T00:48:57;30.42;;;13.25;;
72813;SDS011;60945;48.516;-2.768;2023-06-01T00:51:23;27.92;;;12.95;;
72813;SDS011;60945;48.516;-2.768;2023-06-01T00:53:49;33.38;;;14.40;;
72813;SDS011;60945;48.516;-2.768;2023-06-01T00:56:16;35.00;;;14.80;;
72813;SDS011;60945;48.516;-2.768;2023-06-01T00:58:42;26.17;;;13.25;;
72813;SDS011;60945;48.516;-2.768;2023-06-01T01:01:09;30.58;;;15.45;;
72813;SDS011;60945;48.516;-2.768;2023-06-01T01:03:43;30.08;;;14.95;;
72813;SDS011;60945;48.516;-2.768;2023-06-01T01:11:35;33.60;;;17.50;;
72813;SDS011;60945;48.516;-2.768;2023-06-01T01:14:05;33.80;;;16.00;;
72813;SDS011;60945;48.516;-2.768;2023-06-01T01:16:59;30.63;;;16.65;;
72813;SDS011;60945;48.516;-2.768;2023-06-01T01:22:25;37.88;;;16.95;;
72813;SDS011;60945;48.516;-2.768;2023-06-01T01:25:25;32.72;;;15.95;;
72813;SDS011;60945;48.516;-2.768;2023-06-01T01:31:01;37.08;;;17.42;;
72813;SDS011;60945;48.516;-2.768;2023-06-01T01:33:29;32.70;;;16.25;;
72813;SDS011;60945;48.516;-2.768;2023-06-01T01:35:57;36.15;;;16.83;;
72813;SDS011;60945;48.516;-2.768;2023-06-01T01:38:24;35.83;;;17.23;;
72813;SDS011;60945;48.516;-2.768;2023-06-01T01:40:50;33.00;;;14.95;;
72813;SDS011;60945;48.516;-2.768;2023-06-01T01:43:18;32.47;;;16.75;;
72813;SDS011;60945;48.516;-2.768;2023-06-01T01:45:44;36.40;;;16.60;;
72813;SDS011;60945;48.516;-2.768;2023-06-01T01:48:17;34.20;;;17.03;;
72813;SDS011;60945;48.516;-2.768;2023-06-01T01:50:53;29.60;;;16.45;;
72813;SDS011;60945;48.516;-2.768;2023-06-01T01:53:23;37.22;;;17.13;;
72813;SDS011;60945;48.516;-2.768;2023-06-01T01:55:51;32.38;;;15.98;;
72813;SDS011;60945;48.516;-2.768;2023-06-01T01:58:18;35.78;;;16.98;;
72813;SDS011;60945;48.516;-2.768;2023-06-01T02:00:44;29.65;;;15.45;;
72813;SDS011;60945;48.516;-2.768;2023-06-01T02:03:17;29.15;;;15.00;;
72813;SDS011;60945;48.516;-2.768;2023-06-01T02:08:09;31.75;;;15.07;;
72813;SDS011;60945;48.516;-2.768;2023-06-01T02:10:35;32.28;;;14.75;;
72813;SDS011;60945;48.516;-2.768;2023-06-01T02:13:01;35.30;;;15.65;;
72813;SDS011;60945;48.516;-2.768;2023-06-01T02:15:26;33.47;;;15.05;;
72813;SDS011;60945;48.516;-2.768;2023-06-01T02:17:52;30.63;;;16.10;;
72813;SDS011;60945;48.516;-2.768;2023-06-01T02:20:18;31.20;;;14.65;;
72813;SDS011;60945;48.516;-2.768;2023-06-01T02:22:44;30.40;;;15.85;;
72813;SDS011;60945;48.516;-2.768;2023-06-01T02:25:10;29.42;;;14.75;;
72813;SDS011;60945;48.516;-2.768;2023-06-01T02:27:35;34.10;;;15.30;;
72813;SDS011;60945;48.516;-2.768;2023-06-01T02:30:01;35.30;;;15.82;;
72813;SDS011;60945;48.516;-2.768;2023-06-01T02:32:27;32.78;;;15.85;;
72813;SDS011;60945;48.516;-2.768;2023-06-01T02:34:55;31.38;;;15.82;;
72813;SDS011;60945;48.516;-2.768;2023-06-01T02:37:21;39.30;;;16.23;;
72813;SDS011;60945;48.516;-2.768;2023-06-01T02:39:46;37.65;;;16.70;;
72813;SDS011;60945;48.516;-2.768;2023-06-01T02:42:12;31.02;;;15.60;;
72813;SDS011;60945;48.516;-2.768;2023-06-01T02:44:38;30.60;;;15.35;;
72813;SDS011;60945;48.516;-2.768;2023-06-01T02:47:04;35.58;;;15.70;;
72813;SDS011;60945;48.516;-2.768;2023-06-01T02:49:30;29.88;;;15.70;;
72813;SDS011;60945;48.516;-2.768;2023-06-01T02:51:56;30.63;;;15.50;;
72813;SDS011;60945;48.516;-2.768;2023-06-01T02:54:22;33.75;;;15.00;;
72813;SDS011;60945;48.516;-2.768;2023-06-01T02:56:47;33.47;;;16.25;;
72813;SDS011;60945;48.516;-2.768;2023-06-01T02:59:13;36.42;;;16.45;;
72813;SDS011;60945;48.516;-2.768;2023-06-01T03:01:38;33.47;;;15.95;;
72813;SDS011;60945;48.516;-2.768;2023-06-01T03:04:05;32.17;;;15.88;;
72813;SDS011;60945;48.516;-2.768;2023-06-01T03:06:32;28.08;;;16.30;;
72813;SDS011;60945;48.516;-2.768;2023-06-01T03:09:01;37.40;;;14.45;;
72813;SDS011;60945;48.516;-2.768;2023-06-01T03:11:27;32.40;;;15.50;;
72813;SDS011;60945;48.516;-2.768;2023-06-01T03:13:52;30.85;;;16.33;;
72813;SDS011;60945;48.516;-2.768;2023-06-01T03:16:18;32.50;;;15.95;;
72813;SDS011;60945;48.516;-2.768;2023-06-01T03:18:44;36.72;;;17.38;;
72813;SDS011;60945;48.516;-2.768;2023-06-01T03:21:09;32.45;;;16.77;;
72813;SDS011;60945;48.516;-2.768;2023-06-01T03:23:36;29.98;;;16.27;;
72813;SDS011;60945;48.516;-2.768;2023-06-01T03:26:02;29.95;;;15.27;;
72813;SDS011;60945;48.516;-2.768;2023-06-01T03:28:29;30.15;;;15.20;;
72813;SDS011;60945;48.516;-2.768;2023-06-01T03:30:55;33.55;;;16.30;;
72813;SDS011;60945;48.516;-2.768;2023-06-01T03:33:21;30.90;;;16.05;;
72813;SDS011;60945;48.516;-2.768;2023-06-01T03:35:50;35.42;;;16.63;;
72813;SDS011;60945;48.516;-2.768;2023-06-01T03:38:15;30.85;;;15.65;;
72813;SDS011;60945;48.516;-2.768;2023-06-01T03:40:41;35.65;;;17.20;;
72813;SDS011;60945;48.516;-2.768;2023-06-01T03:43:06;36.53;;;15.13;;
72813;SDS011;60945;48.516;-2.768;2023-06-01T03:45:32;33.88;;;17.60;;
72813;SDS011;60945;48.516;-2.768;2023-06-01T03:47:58;32.40;;;17.23;;
72813;SDS011;60945;48.516;-2.768;2023-06-01T03:50:24;31.27;;;16.60;;
72813;SDS011;60945;48.516;-2.768;2023-06-01T03:52:49;30.38;;;15.32;;
72813;SDS011;60945;48.516;-2.768;2023-06-01T03:55:15;36.83;;;16.27;;
72813;SDS011;60945;48.516;-2.768;2023-06-01T03:57:44;39.00;;;16.73;;
72813;SDS011;60945;48.516;-2.768;2023-06-01T04:00:10;38.50;;;17.77;;
72813;SDS011;60945;48.516;-2.768;2023-06-01T04:02:48;34.15;;;16.65;;
72813;SDS011;60945;48.516;-2.768;2023-06-01T04:05:17;32.15;;;16.05;;
72813;SDS011;60945;48.516;-2.768;2023-06-01T04:07:46;33.50;;;17.08;;
72813;SDS011;60945;48.516;-2.768;2023-06-01T04:10:13;42.72;;;18.08;;
72813;SDS011;60945;48.516;-2.768;2023-06-01T04:12:41;34.67;;;17.58;;
72813;SDS011;60945;48.516;-2.768;2023-06-01T04:15:10;39.65;;;18.05;;
72813;SDS011;60945;48.516;-2.768;2023-06-01T04:17:38;36.47;;;16.85;;
72813;SDS011;60945;48.516;-2.768;2023-06-01T04:20:04;34.42;;;17.45;;
72813;SDS011;60945;48.516;-2.768;2023-06-01T04:22:31;31.58;;;17.33;;
72813;SDS011;60945;48.516;-2.768;2023-06-01T04:24:57;41.08;;;18.00;;
72813;SDS011;60945;48.516;-2.768;2023-06-01T04:27:23;35.03;;;17.10;;
72813;SDS011;60945;48.516;-2.768;2023-06-01T04:29:49;34.38;;;16.80;;
72813;SDS011;60945;48.516;-2.768;2023-06-01T04:32:16;35.97;;;16.77;;
72813;SDS011;60945;48.516;-2.768;2023-06-01T04:34:46;36.00;;;17.75;;
72813;SDS011;60945;48.516;-2.768;2023-06-01T04:37:16;39.63;;;17.95;;
72813;SDS011;60945;48.516;-2.768;2023-06-01T04:39:46;35.28;;;16.13;;
72813;SDS011;60945;48.516;-2.768;2023-06-01T04:42:16;37.70;;;18.10;;
72813;SDS011;60945;48.516;-2.768;2023-06-01T04:44:43;37.05;;;17.15;;
72813;SDS011;60945;48.516;-2.768;2023-06-01T04:47:11;30.38;;;16.75;;
72813;SDS011;60945;48.516;-2.768;2023-06-01T04:49:41;42.65;;;19.55;;
72813;SDS011;60945;48.516;-2.768;2023-06-01T04:52:07;39.30;;;17.23;;
72813;SDS011;60945;48.516;-2.768;2023-06-01T04:54:35;35.90;;;17.30;;
72813;SDS011;60945;48.516;-2.768;2023-06-01T04:57:01;34.42;;;17.08;;
72813;SDS011;60945;48.516;-2.768;2023-06-01T04:59:27;28.67;;;16.42;;
72813;SDS011;60945;48.516;-2.768;2023-06-01T05:01:52;34.30;;;17.25;;
72813;SDS011;60945;48.516;-2.768;2023-06-01T05:04:18;30.13;;;15.75;;
72813;SDS011;60945;48.516;-2.768;2023-06-01T05:06:44;34.78;;;15.98;;
72813;SDS011;60945;48.516;-2.768;2023-06-01T05:09:09;38.65;;;16.95;;
72813;SDS011;60945;48.516;-2.768;2023-06-01T05:11:35;32.72;;;16.08;;
72813;SDS011;60945;48.516;-2.768;2023-06-01T05:14:00;36.17;;;17.63;;
72813;SDS011;60945;48.516;-2.768;2023-06-01T05:16:27;31.20;;;16.90;;
72813;SDS011;60945;48.516;-2.768;2023-06-01T05:18:54;33.65;;;16.92;;
72813;SDS011;60945;48.516;-2.768;2023-06-01T05:21:20;33.92;;;16.33;;
72813;SDS011;60945;48.516;-2.768;2023-06-01T05:23:46;31.45;;;16.35;;
72813;SDS011;60945;48.516;-2.768;2023-06-01T05:26:12;29.48;;;16.23;;
72813;SDS011;60945;48.516;-2.768;2023-06-01T05:28:38;30.52;;;15.15;;
72813;SDS011;60945;48.516;-2.768;2023-06-01T05:31:04;26.92;;;14.00;;
72813;SDS011;60945;48.516;-2.768;2023-06-01T05:33:30;35.00;;;15.57;;
72813;SDS011;60945;48.516;-2.768;2023-06-01T05:35:56;29.55;;;15.18;;
72813;SDS011;60945;48.516;-2.768;2023-06-01T05:38:21;32.17;;;15.15;;
72813;SDS011;60945;48.516;-2.768;2023-06-01T05:40:47;31.92;;;15.27;;
72813;SDS011;60945;48.516;-2.768;2023-06-01T05:43:13;30.80;;;15.32;;
72813;SDS011;60945;48.516;-2.768;2023-06-01T05:45:40;26.13;;;13.77;;
72813;SDS011;60945;48.516;-2.768;2023-06-01T05:48:06;30.45;;;15.55;;
72813;SDS011;60945;48.516;-2.768;2023-06-01T05:50:31;29.02;;;14.60;;
72813;SDS011;60945;48.516;-2.768;2023-06-01T05:52:57;32.22;;;14.80;;
72813;SDS011;60945;48.516;-2.768;2023-06-01T05:55:22;27.20;;;14.50;;
72813;SDS011;60945;48.516;-2.768;2023-06-01T05:57:48;26.05;;;15.15;;
72813;SDS011;60945;48.516;-2.768;2023-06-01T06:00:14;31.38;;;14.60;;
72813;SDS011;60945;48.516;-2.768;2023-06-01T06:02:42;31.60;;;17.08;;
72813;SDS011;60945;48.516;-2.768;2023-06-01T06:05:19;28.85;;;15.00;;
72813;SDS011;60945;48.516;-2.768;2023-06-01T06:07:45;34.72;;;15.48;;
72813;SDS011;60945;48.516;-2.768;2023-06-01T06:10:11;28.63;;;14.30;;
72813;SDS011;60945;48.516;-2.768;2023-06-01T06:12:37;29.38;;;14.77;;
72813;SDS011;60945;48.516;-2.768;2023-06-01T06:15:03;30.45;;;15.00;;
72813;SDS011;60945;48.516;-2.768;2023-06-01T06:17:29;26.40;;;16.15;;
72813;SDS011;60945;48.516;-2.768;2023-06-01T06:19:55;32.08;;;15.18;;
72813;SDS011;60945;48.516;-2.768;2023-06-01T06:22:21;29.33;;;14.93;;
72813;SDS011;60945;48.516;-2.768;2023-06-01T06:24:46;30.60;;;14.55;;
72813;SDS011;60945;48.516;-2.768;2023-06-01T06:27:12;25.58;;;14.95;;
72813;SDS011;60945;48.516;-2.768;2023-06-01T06:29:38;26.98;;;15.32;;
72813;SDS011;60945;48.516;-2.768;2023-06-01T06:32:04;31.60;;;14.43;;
72813;SDS011;60945;48.516;-2.768;2023-06-01T06:34:30;33.55;;;15.95;;
72813;SDS011;60945;48.516;-2.768;2023-06-01T06:37:04;31.73;;;14.70;;
72813;SDS011;60945;48.516;-2.768;2023-06-01T06:39:31;29.65;;;14.55;;
72813;SDS011;60945;48.516;-2.768;2023-06-01T06:41:58;27.95;;;15.30;;
72813;SDS011;60945;48.516;-2.768;2023-06-01T06:44:24;32.05;;;15.52;;
72813;SDS011;60945;48.516;-2.768;2023-06-01T06:46:50;36.67;;;17.90;;
72813;SDS011;60945;48.516;-2.768;2023-06-01T06:49:15;28.67;;;15.05;;
72813;SDS011;60945;48.516;-2.768;2023-06-01T06:51:43;34.50;;;16.35;;
72813;SDS011;60945;48.516;-2.768;2023-06-01T06:54:09;35.58;;;15.90;;
72813;SDS011;60945;48.516;-2.768;2023-06-01T06:56:35;29.95;;;15.65;;
72813;SDS011;60945;48.516;-2.768;2023-06-01T06:59:01;34.35;;;15.95;;
72813;SDS011;60945;48.516;-2.768;2023-06-01T07:01:27;30.65;;;16.02;;
72813;SDS011;60945;48.516;-2.768;2023-06-01T07:03:53;31.92;;;15.73;;
72813;SDS011;60945;48.516;-2.768;2023-06-01T07:06:20;30.48;;;16.17;;
72813;SDS011;60945;48.516;-2.768;2023-06-01T07:08:47;31.65;;;16.38;;
72813;SDS011;60945;48.516;-2.768;2023-06-01T07:11:13;31.52;;;15.55;;
72813;SDS011;60945;48.516;-2.768;2023-06-01T07:13:39;31.15;;;16.85;;
72813;SDS011;60945;48.516;-2.768;2023-06-01T07:16:05;30.85;;;16.20;;
72813;SDS011;60945;48.516;-2.768;2023-06-01T07:18:31;32.55;;;15.52;;
72813;SDS011;60945;48.516;-2.768;2023-06-01T07:20:57;28.63;;;14.73;;
72813;SDS011;60945;48.516;-2.768;2023-06-01T07:23:23;25.90;;;14.85;;
72813;SDS011;60945;48.516;-2.768;2023-06-01T07:25:49;26.73;;;14.98;;
72813;SDS011;60945;48.516;-2.768;2023-06-01T07:28:15;35.55;;;15.00;;
72813;SDS011;60945;48.516;-2.768;2023-06-01T07:30:41;26.55;;;14.20;;
72813;SDS011;60945;48.516;-2.768;2023-06-01T07:33:07;25.00;;;15.02;;
72813;SDS011;60945;48.516;-2.768;2023-06-01T07:35:33;24.15;;;14.07;;
72813;SDS011;60945;48.516;-2.768;2023-06-01T07:37:59;28.30;;;14.55;;
72813;SDS011;60945;48.516;-2.768;2023-06-01T07:40:28;21.67;;;12.25;;
72813;SDS011;60945;48.516;-2.768;2023-06-01T07:42:54;28.70;;;13.75;;
72813;SDS011;60945;48.516;-2.768;2023-06-01T07:45:20;29.77;;;13.57;;
72813;SDS011;60945;48.516;-2.768;2023-06-01T07:47:45;24.73;;;13.32;;
72813;SDS011;60945;48.516;-2.768;2023-06-01T07:50:11;27.70;;;12.35;;
72813;SDS011;60945;48.516;-2.768;2023-06-01T07:52:37;28.10;;;13.52;;
72813;SDS011;60945;48.516;-2.768;2023-06-01T07:55:03;27.10;;;13.55;;
72813;SDS011;60945;48.516;-2.768;2023-06-01T07:57:29;26.10;;;13.23;;
72813;SDS011;60945;48.516;-2.768;2023-06-01T07:59:57;24.10;;;12.68;;
72813;SDS011;60945;48.516;-2.768;2023-06-01T08:02:23;21.27;;;11.93;;
72813;SDS011;60945;48.516;-2.768;2023-06-01T08:04:49;23.92;;;13.00;;
72813;SDS011;60945;48.516;-2.768;2023-06-01T08:07:16;25.05;;;12.38;;
72813;SDS011;60945;48.516;-2.768;2023-06-01T08:09:43;22.38;;;12.55;;
72813;SDS011;60945;48.516;-2.768;2023-06-01T08:12:09;24.00;;;12.68;;
72813;SDS011;60945;48.516;-2.768;2023-06-01T08:14:36;23.30;;;12.75;;
72813;SDS011;60945;48.516;-2.768;2023-06-01T08:17:03;29.25;;;13.18;;
72813;SDS011;60945;48.516;-2.768;2023-06-01T08:19:32;27.75;;;12.82;;
72813;SDS011;60945;48.516;-2.768;2023-06-01T08:21:58;27.30;;;13.05;;
72813;SDS011;60945;48.516;-2.768;2023-06-01T08:24:24;28.15;;;12.60;;
72813;SDS011;60945;48.516;-2.768;2023-06-01T08:26:54;24.55;;;12.18;;
72813;SDS011;60945;48.516;-2.768;2023-06-01T08:29:21;28.05;;;12.38;;
72813;SDS011;60945;48.516;-2.768;2023-06-01T08:31:47;29.98;;;14.55;;
72813;SDS011;60945;48.516;-2.768;2023-06-01T08:34:12;24.02;;;12.77;;
72813;SDS011;60945;48.516;-2.768;2023-06-01T08:36:38;24.95;;;12.40;;
72813;SDS011;60945;48.516;-2.768;2023-06-01T08:39:22;20.58;;;11.98;;
72813;SDS011;60945;48.516;-2.768;2023-06-01T08:44:50;25.65;;;11.88;;
72813;SDS011;60945;48.516;-2.768;2023-06-01T08:47:19;23.73;;;12.00;;
72813;SDS011;60945;48.516;-2.768;2023-06-01T08:49:45;23.63;;;11.93;;
72813;SDS011;60945;48.516;-2.768;2023-06-01T08:52:12;25.40;;;12.75;;
72813;SDS011;60945;48.516;-2.768;2023-06-01T08:54:38;25.95;;;12.80;;
72813;SDS011;60945;48.516;-2.768;2023-06-01T08:57:05;26.23;;;12.35;;
72813;SDS011;60945;48.516;-2.768;2023-06-01T08:59:34;29.02;;;14.23;;
72813;SDS011;60945;48.516;-2.768;2023-06-01T09:02:01;28.80;;;12.77;;
72813;SDS011;60945;48.516;-2.768;2023-06-01T09:04:27;22.27;;;12.18;;
72813;SDS011;60945;48.516;-2.768;2023-06-01T09:06:56;24.65;;;12.60;;
72813;SDS011;60945;48.516;-2.768;2023-06-01T09:09:22;26.02;;;12.10;;
72813;SDS011;60945;48.516;-2.768;2023-06-01T09:11:47;22.98;;;11.18;;
72813;SDS011;60945;48.516;-2.768;2023-06-01T09:14:20;24.85;;;12.32;;
72813;SDS011;60945;48.516;-2.768;2023-06-01T09:16:47;29.27;;;12.88;;
72813;SDS011;60945;48.516;-2.768;2023-06-01T09:19:13;25.38;;;11.95;;
72813;SDS011;60945;48.516;-2.768;2023-06-01T09:21:39;25.02;;;12.25;;
72813;SDS011;60945;48.516;-2.768;2023-06-01T09:24:23;29.88;;;12.38;;
72813;SDS011;60945;48.516;-2.768;2023-06-01T09:26:51;28.48;;;12.32;;
72813;SDS011;60945;48.516;-2.768;2023-06-01T09:29:24;21.08;;;11.93;;
72813;SDS011;60945;48.516;-2.768;2023-06-01T09:31:49;23.33;;;11.63;;
72813;SDS011;60945;48.516;-2.768;2023-06-01T09:34:16;28.27;;;12.25;;
72813;SDS011;60945;48.516;-2.768;2023-06-01T09:39:12;25.88;;;12.63;;
72813;SDS011;60945;48.516;-2.768;2023-06-01T09:41:47;21.48;;;11.27;;
72813;SDS011;60945;48.516;-2.768;2023-06-01T09:47:03;24.40;;;11.40;;
72813;SDS011;60945;48.516;-2.768;2023-06-01T09:49:37;24.65;;;12.38;;
72813;SDS011;60945;48.516;-2.768;2023-06-01T09:54:43;23.35;;;11.77;;
72813;SDS011;60945;48.516;-2.768;2023-06-01T09:59:45;19.30;;;10.68;;
72813;SDS011;60945;48.516;-2.768;2023-06-01T10:02:15;22.23;;;11.60;;
72813;SDS011;60945;48.516;-2.768;2023-06-01T10:04:46;24.58;;;11.18;;
72813;SDS011;60945;48.516;-2.768;2023-06-01T10:07:14;28.92;;;11.15;;
72813;SDS011;60945;48.516;-2.768;2023-06-01T10:09:42;23.83;;;11.88;;
72813;SDS011;60945;48.516;-2.768;2023-06-01T10:12:10;24.60;;;11.55;;
72813;SDS011;60945;48.516;-2.768;2023-06-01T10:14:37;22.90;;;11.82;;
72813;SDS011;60945;48.516;-2.768;2023-06-01T10:17:04;23.88;;;11.40;;
72813;SDS011;60945;48.516;-2.768;2023-06-01T10:19:30;24.73;;;11.13;;
72813;SDS011;60945;48.516;-2.768;2023-06-01T10:21:59;23.52;;;10.57;;
72813;SDS011;60945;48.516;-2.768;2023-06-01T10:24:25;22.48;;;11.70;;
72813;SDS011;60945;48.516;-2.768;2023-06-01T10:26:56;24.35;;;11.68;;
72813;SDS011;60945;48.516;-2.768;2023-06-01T10:29:48;20.52;;;10.85;;
72813;SDS011;60945;48.516;-2.768;2023-06-01T10:35:56;25.60;;;12.18;;
72813;SDS011;60945;48.516;-2.768;2023-06-01T10:40:40;23.37;;;11.90;;
72813;SDS011;60945;48.516;-2.768;2023-06-01T10:43:07;23.50;;;11.05;;
72813;SDS011;60945;48.516;-2.768;2023-06-01T10:48:00;24.80;;;12.32;;
72813;SDS011;60945;48.516;-2.768;2023-06-01T10:50:26;23.98;;;11.38;;
72813;SDS011;60945;48.516;-2.768;2023-06-01T10:52:53;20.38;;;12.13;;
72813;SDS011;60945;48.516;-2.768;2023-06-01T10:55:20;24.05;;;11.90;;
72813;SDS011;60945;48.516;-2.768;2023-06-01T10:57:47;21.75;;;10.57;;
72813;SDS011;60945;48.516;-2.768;2023-06-01T11:13:28;28.50;;;10.90;;
72813;SDS011;60945;48.516;-2.768;2023-06-01T11:18:49;20.23;;;11.85;;
72813;SDS011;60945;48.516;-2.768;2023-06-01T11:23:59;20.02;;;10.57;;
72813;SDS011;60945;48.516;-2.768;2023-06-01T11:26:30;20.45;;;10.80;;
72813;SDS011;60945;48.516;-2.768;2023-06-01T11:29:11;19.48;;;11.15;;
72813;SDS011;60945;48.516;-2.768;2023-06-01T11:31:48;22.08;;;11.07;;
72813;SDS011;60945;48.516;-2.768;2023-06-01T11:34:15;24.20;;;10.27;;
72813;SDS011;60945;48.516;-2.768;2023-06-01T11:36:46;20.38;;;10.40;;
72813;SDS011;60945;48.516;-2.768;2023-06-01T11:39:17;21.52;;;10.85;;
72813;SDS011;60945;48.516;-2.768;2023-06-01T11:42:02;26.38;;;10.93;;
72813;SDS011;60945;48.516;-2.768;2023-06-01T11:44:36;27.98;;;11.80;;
72813;SDS011;60945;48.516;-2.768;2023-06-01T11:47:03;22.25;;;10.45;;
72813;SDS011;60945;48.516;-2.768;2023-06-01T11:49:31;21.88;;;11.20;;
72813;SDS011;60945;48.516;-2.768;2023-06-01T11:52:07;20.48;;;10.82;;
72813;SDS011;60945;48.516;-2.768;2023-06-01T11:54:34;29.27;;;11.23;;
72813;SDS011;60945;48.516;-2.768;2023-06-01T11:57:01;19.90;;;10.65;;
72813;SDS011;60945;48.516;-2.768;2023-06-01T11:59:42;23.10;;;10.20;;
72813;SDS011;60945;48.516;-2.768;2023-06-01T12:02:30;17.52;;;9.80;;
72813;SDS011;60945;48.516;-2.768;2023-06-01T12:07:31;22.13;;;10.63;;
72813;SDS011;60945;48.516;-2.768;2023-06-01T12:09:56;25.83;;;11.32;;
72813;SDS011;60945;48.516;-2.768;2023-06-01T12:12:25;21.42;;;10.07;;
72813;SDS011;60945;48.516;-2.768;2023-06-01T12:14:54;20.95;;;11.15;;
72813;SDS011;60945;48.516;-2.768;2023-06-01T12:17:20;16.70;;;9.68;;
72813;SDS011;60945;48.516;-2.768;2023-06-01T12:19:46;20.05;;;9.40;;
72813;SDS011;60945;48.516;-2.768;2023-06-01T12:22:12;23.27;;;9.90;;
72813;SDS011;60945;48.516;-2.768;2023-06-01T12:24:40;20.63;;;9.35;;
72813;SDS011;60945;48.516;-2.768;2023-06-01T12:27:13;20.48;;;9.57;;
72813;SDS011;60945;48.516;-2.768;2023-06-01T12:29:44;21.58;;;10.13;;
72813;SDS011;60945;48.516;-2.768;2023-06-01T12:32:12;18.20;;;9.75;;
72813;SDS011;60945;48.516;-2.768;2023-06-01T12:34:41;19.52;;;9.05;;
72813;SDS011;60945;48.516;-2.768;2023-06-01T12:37:17;23.38;;;9.82;;
72813;SDS011;60945;48.516;-2.768;2023-06-01T12:39:43;24.17;;;9.43;;
72813;SDS011;60945;48.516;-2.768;2023-06-01T12:42:17;21.88;;;10.32;;
72813;SDS011;60945;48.516;-2.768;2023-06-01T12:44:43;19.48;;;9.88;;
72813;SDS011;60945;48.516;-2.768;2023-06-01T12:47:16;19.80;;;9.43;;
72813;SDS011;60945;48.516;-2.768;2023-06-01T12:50:00;19.08;;;9.18;;
72813;SDS011;60945;48.516;-2.768;2023-06-01T12:52:27;17.13;;;8.48;;
72813;SDS011;60945;48.516;-2.768;2023-06-01T12:54:53;22.77;;;10.05;;
72813;SDS011;60945;48.516;-2.768;2023-06-01T12:57:19;23.98;;;10.88;;
72813;SDS011;60945;48.516;-2.768;2023-06-01T12:59:49;21.95;;;10.52;;
72813;SDS011;60945;48.516;-2.768;2023-06-01T13:02:15;20.13;;;9.35;;
72813;SDS011;60945;48.516;-2.768;2023-06-01T13:04:40;19.85;;;10.07;;
72813;SDS011;60945;48.516;-2.768;2023-06-01T13:07:07;25.30;;;10.65;;
72813;SDS011;60945;48.516;-2.768;2023-06-01T13:09:33;18.77;;;9.48;;
72813;SDS011;60945;48.516;-2.768;2023-06-01T13:11:58;21.13;;;9.48;;
72813;SDS011;60945;48.516;-2.768;2023-06-01T13:14:24;20.30;;;10.93;;
72813;SDS011;60945;48.516;-2.768;2023-06-01T13:16:51;19.77;;;9.85;;
72813;SDS011;60945;48.516;-2.768;2023-06-01T13:19:16;18.95;;;9.68;;
72813;SDS011;60945;48.516;-2.768;2023-06-01T13:21:42;19.63;;;10.10;;
72813;SDS011;60945;48.516;-2.768;2023-06-01T13:24:08;20.25;;;10.55;;
72813;SDS011;60945;48.516;-2.768;2023-06-01T13:26:35;20.75;;;10.30;;
72813;SDS011;60945;48.516;-2.768;2023-06-01T13:29:01;19.15;;;10.20;;
72813;SDS011;60945;48.516;-2.768;2023-06-01T13:31:31;23.60;;;11.10;;
72813;SDS011;60945;48.516;-2.768;2023-06-01T13:33:57;20.88;;;9.90;;
72813;SDS011;60945;48.516;-2.768;2023-06-01T13:36:23;20.88;;;10.35;;
72813;SDS011;60945;48.516;-2.768;2023-06-01T13:38:49;18.33;;;10.25;;
72813;SDS011;60945;48.516;-2.768;2023-06-01T13:41:15;22.83;;;10.68;;
72813;SDS011;60945;48.516;-2.768;2023-06-01T13:43:41;18.55;;;10.30;;
72813;SDS011;60945;48.516;-2.768;2023-06-01T13:46:10;24.30;;;11.93;;
72813;SDS011;60945;48.516;-2.768;2023-06-01T13:48:36;21.42;;;10.27;;
72813;SDS011;60945;48.516;-2.768;2023-06-01T13:51:02;16.63;;;10.20;;
72813;SDS011;60945;48.516;-2.768;2023-06-01T13:53:29;21.02;;;10.45;;
72813;SDS011;60945;48.516;-2.768;2023-06-01T13:55:55;25.35;;;10.60;;
72813;SDS011;60945;48.516;-2.768;2023-06-01T13:58:21;24.27;;;10.50;;
72813;SDS011;60945;48.516;-2.768;2023-06-01T14:00:47;24.45;;;10.88;;
72813;SDS011;60945;48.516;-2.768;2023-06-01T14:03:13;19.20;;;10.00;;
72813;SDS011;60945;48.516;-2.768;2023-06-01T14:05:38;20.50;;;10.85;;
72813;SDS011;60945;48.516;-2.768;2023-06-01T14:08:04;19.25;;;10.38;;
72813;SDS011;60945;48.516;-2.768;2023-06-01T14:10:31;20.80;;;10.15;;
72813;SDS011;60945;48.516;-2.768;2023-06-01T14:12:59;22.48;;;11.98;;
72813;SDS011;60945;48.516;-2.768;2023-06-01T14:15:25;19.27;;;10.73;;
72813;SDS011;60945;48.516;-2.768;2023-06-01T14:17:51;22.30;;;10.15;;
72813;SDS011;60945;48.516;-2.768;2023-06-01T14:20:17;20.10;;;10.27;;
72813;SDS011;60945;48.516;-2.768;2023-06-01T14:22:43;22.08;;;10.98;;
72813;SDS011;60945;48.516;-2.768;2023-06-01T14:25:09;28.55;;;12.20;;
72813;SDS011;60945;48.516;-2.768;2023-06-01T14:27:34;18.27;;;10.40;;
72813;SDS011;60945;48.516;-2.768;2023-06-01T14:30:03;18.35;;;9.70;;
72813;SDS011;60945;48.516;-2.768;2023-06-01T14:32:29;24.42;;;10.35;;
72813;SDS011;60945;48.516;-2.768;2023-06-01T14:34:55;17.63;;;10.20;;
72813;SDS011;60945;48.516;-2.768;2023-06-01T14:37:21;26.40;;;10.82;;
72813;SDS011;60945;48.516;-2.768;2023-06-01T14:39:47;20.52;;;10.07;;
72813;SDS011;60945;48.516;-2.768;2023-06-01T14:42:14;18.30;;;10.07;;
72813;SDS011;60945;48.516;-2.768;2023-06-01T14:44:43;18.92;;;8.85;;
72813;SDS011;60945;48.516;-2.768;2023-06-01T14:47:18;21.63;;;9.88;;
72813;SDS011;60945;48.516;-2.768;2023-06-01T14:49:43;19.88;;;9.75;;
72813;SDS011;60945;48.516;-2.768;2023-06-01T14:52:09;22.42;;;9.98;;
72813;SDS011;60945;48.516;-2.768;2023-06-01T14:54:37;20.90;;;10.68;;
72813;SDS011;60945;48.516;-2.768;2023-06-01T14:57:03;16.95;;;9.35;;
72813;SDS011;60945;48.516;-2.768;2023-06-01T14:59:30;23.15;;;9.57;;
72813;SDS011;60945;48.516;-2.768;2023-06-01T15:01:58;22.90;;;9.00;;
72813;SDS011;60945;48.516;-2.768;2023-06-01T15:04:24;19.63;;;10.25;;
72813;SDS011;60945;48.516;-2.768;2023-06-01T15:06:50;20.00;;;10.18;;
72813;SDS011;60945;48.516;-2.768;2023-06-01T15:09:16;24.65;;;10.80;;
72813;SDS011;60945;48.516;-2.768;2023-06-01T15:11:41;19.40;;;9.88;;